createdAt,value
2023-04-14T00:00:40.636Z,2.38
2023-04-14T00:03:09.161Z,2.63
2023-04-14T00:05:37.928Z,2.33
2023-04-14T00:08:06.423Z,2.10
2023-04-14T00:10:34.869Z,2.22
2023-04-14T00:13:04.722Z,2.33
2023-04-14T00:15:33.162Z,2.05
2023-04-14T00:18:01.643Z,2.40
2023-04-14T00:20:30.156Z,2.58
2023-04-14T00:22:58.618Z,2.33
2023-04-14T00:25:27.056Z,2.17
2023-04-14T00:27:55.453Z,2.47
2023-04-14T00:30:25.255Z,2.05
2023-04-14T00:32:53.765Z,2.80
2023-04-14T00:35:22.542Z,2.22
2023-04-14T00:37:51.765Z,2.05
2023-04-14T00:40:20.316Z,2.63
2023-04-14T00:42:49.262Z,2.38
2023-04-14T00:45:17.735Z,2.70
2023-04-14T00:47:48.132Z,2.08
2023-04-14T00:50:17.411Z,2.00
2023-04-14T00:52:46.558Z,2.45
2023-04-14T00:55:15.734Z,2.22
2023-04-14T00:57:44.503Z,2.03
2023-04-14T01:00:13.974Z,2.47
2023-04-14T01:02:42.606Z,1.83
2023-04-14T01:05:12.853Z,2.17
2023-04-14T01:07:41.670Z,2.28
2023-04-14T01:10:10.614Z,1.90
2023-04-14T01:12:49.923Z,2.40
2023-04-14T01:15:25.033Z,2.30
2023-04-14T01:17:56.300Z,2.10
2023-04-14T01:20:29.166Z,2.42
2023-04-14T01:23:01.087Z,1.95
2023-04-14T01:25:36.077Z,2.10
2023-04-14T01:28:11.855Z,2.10
2023-04-14T01:30:49.478Z,2.30
2023-04-14T01:33:22.568Z,2.60
2023-04-14T01:35:52.496Z,2.33
2023-04-14T01:38:23.718Z,2.40
2023-04-14T01:40:52.719Z,2.80
2023-04-14T01:43:24.609Z,2.85
2023-04-14T01:45:54.476Z,2.30
2023-04-14T01:48:25.726Z,2.47
2023-04-14T01:50:55.342Z,2.88
2023-04-14T01:53:24.256Z,1.98
2023-04-14T01:55:53.437Z,1.95
2023-04-14T01:58:22.719Z,2.00
2023-04-14T02:00:52.256Z,2.20
2023-04-14T02:03:21.449Z,2.00
2023-04-14T02:05:53.118Z,2.53
2023-04-14T02:08:22.292Z,2.65
2023-04-14T02:10:51.921Z,2.38
2023-04-14T02:13:21.337Z,2.50
2023-04-14T02:15:51.061Z,2.40
2023-04-14T02:18:21.035Z,2.30
2023-04-14T02:20:52.614Z,2.33
2023-04-14T02:23:21.185Z,2.58
2023-04-14T02:25:51.999Z,2.60
2023-04-14T02:28:21.580Z,2.88
2023-04-14T02:30:50.810Z,2.08
2023-04-14T02:33:22.087Z,2.55
2023-04-14T02:35:54.547Z,2.60
2023-04-14T02:38:24.469Z,2.47
2023-04-14T02:40:52.992Z,2.33
2023-04-14T02:43:23.217Z,2.53
2023-04-14T02:45:53.467Z,2.50
2023-04-14T02:48:23.406Z,2.22
2023-04-14T02:50:54.719Z,2.25
2023-04-14T02:53:24.333Z,2.53
2023-04-14T02:55:53.149Z,2.60
2023-04-14T02:58:21.753Z,2.78
2023-04-14T03:00:52.013Z,2.65
2023-04-14T03:03:21.275Z,2.63
2023-04-14T03:05:50.097Z,2.45
2023-04-14T03:08:20.489Z,2.65
2023-04-14T03:10:50.057Z,2.38
2023-04-14T03:13:18.745Z,2.50
2023-04-14T03:15:47.603Z,2.22
2023-04-14T03:18:16.280Z,2.85
2023-04-14T03:20:45.886Z,2.55
2023-04-14T03:23:15.640Z,2.75
2023-04-14T03:25:45.627Z,2.95
2023-04-14T03:28:16.019Z,2.72
2023-04-14T03:30:46.063Z,2.58
2023-04-14T03:33:16.004Z,2.63
2023-04-14T03:35:44.858Z,2.88
2023-04-14T03:38:13.350Z,2.70
2023-04-14T03:40:45.128Z,3.00
2023-04-14T03:43:19.953Z,2.25
2023-04-14T03:45:49.328Z,2.58
2023-04-14T03:48:19.433Z,2.47
2023-04-14T03:50:51.571Z,3.40
2023-04-14T03:53:21.323Z,3.10
2023-04-14T03:55:51.515Z,2.45
2023-04-14T03:58:22.257Z,2.90
2023-04-14T04:00:51.537Z,2.67
2023-04-14T04:03:20.625Z,2.90
2023-04-14T04:05:49.970Z,2.90
2023-04-14T04:08:19.423Z,2.85
2023-04-14T04:10:48.811Z,3.53
2023-04-14T04:13:18.406Z,3.10
2023-04-14T04:15:49.049Z,2.78
2023-04-14T04:18:18.452Z,2.95
2023-04-14T04:20:47.642Z,2.85
2023-04-14T04:23:17.674Z,2.72
2023-04-14T04:25:46.219Z,3.10
2023-04-14T04:28:14.757Z,3.30
2023-04-14T04:30:43.421Z,3.10
2023-04-14T04:33:13.409Z,3.47
2023-04-14T04:35:43.150Z,3.10
2023-04-14T04:38:11.833Z,3.75
2023-04-14T04:40:40.388Z,3.65
2023-04-14T04:43:08.878Z,4.30
2023-04-14T04:45:46.340Z,3.55
2023-04-14T04:48:16.174Z,4.35
2023-04-14T04:50:44.695Z,3.92
2023-04-14T04:53:13.980Z,3.55
2023-04-14T04:55:42.746Z,4.00
2023-04-14T04:58:11.234Z,4.05
2023-04-14T05:00:39.959Z,4.22
2023-04-14T05:03:08.535Z,4.35
2023-04-14T05:05:38.807Z,4.70
2023-04-14T05:08:07.901Z,4.97
2023-04-14T05:10:36.698Z,5.43
2023-04-14T05:13:05.561Z,5.13
2023-04-14T05:15:34.100Z,6.35
2023-04-14T05:18:02.677Z,6.45
2023-04-14T05:20:32.157Z,6.38
2023-04-14T05:23:02.788Z,6.28
2023-04-14T05:25:31.363Z,6.00
2023-04-14T05:27:59.790Z,5.80
2023-04-14T05:30:28.421Z,6.55
2023-04-14T05:32:56.913Z,6.38
2023-04-14T05:35:25.606Z,6.13
2023-04-14T05:37:54.240Z,6.03
2023-04-14T05:40:24.512Z,7.10
2023-04-14T05:42:54.341Z,6.15
2023-04-14T05:45:23.832Z,5.93
2023-04-14T05:47:52.329Z,5.53
2023-04-14T05:50:22.385Z,7.00
2023-04-14T05:52:50.875Z,6.68
2023-04-14T05:55:19.444Z,6.28
2023-04-14T05:57:49.379Z,6.68
2023-04-14T06:00:18.093Z,6.90
2023-04-14T06:02:46.761Z,6.70
2023-04-14T06:05:15.344Z,6.53
2023-04-14T06:07:43.817Z,7.10
2023-04-14T06:10:12.691Z,6.75
2023-04-14T06:12:41.165Z,6.72
2023-04-14T06:15:14.399Z,6.30
2023-04-14T06:17:42.945Z,6.85
2023-04-14T06:20:12.088Z,6.60
2023-04-14T06:22:40.605Z,6.35
2023-04-14T06:25:10.935Z,5.95
2023-04-14T06:27:39.411Z,6.00
2023-04-14T06:30:08.668Z,5.50
2023-04-14T06:32:38.518Z,5.10
2023-04-14T06:35:07.683Z,4.88
2023-04-14T06:37:36.198Z,5.15
2023-04-14T06:40:04.708Z,4.70
2023-04-14T06:42:33.147Z,4.72
2023-04-14T06:45:01.678Z,4.57
2023-04-14T06:47:30.170Z,4.72
2023-04-14T06:50:00.071Z,4.38
2023-04-14T06:52:28.539Z,4.03
2023-04-14T06:54:56.999Z,4.47
2023-04-14T06:57:25.907Z,3.97
2023-04-14T06:59:54.411Z,4.32
2023-04-14T07:02:22.849Z,4.35
2023-04-14T07:04:51.393Z,4.63
2023-04-14T07:07:21.287Z,4.05
2023-04-14T07:09:49.750Z,3.90
2023-04-14T07:12:18.933Z,4.03
2023-04-14T07:14:52.032Z,3.63
2023-04-14T07:17:20.656Z,3.90
2023-04-14T07:19:49.143Z,3.67
2023-04-14T07:22:17.668Z,3.67
2023-04-14T07:24:47.621Z,4.32
2023-04-14T07:27:16.167Z,4.18
2023-04-14T07:29:44.720Z,3.95
2023-04-14T07:32:13.581Z,4.15
2023-04-14T07:34:44.303Z,3.60
2023-04-14T07:37:13.004Z,4.00
2023-04-14T07:39:41.608Z,3.85
2023-04-14T07:42:11.610Z,3.75
2023-04-14T07:44:40.105Z,3.42
2023-04-14T07:47:08.595Z,3.85
2023-04-14T07:49:37.698Z,3.55
2023-04-14T07:52:06.200Z,3.63
2023-04-14T07:54:34.904Z,3.35
2023-04-14T07:57:03.449Z,3.88
2023-04-14T07:59:33.699Z,3.05
2023-04-14T08:02:02.305Z,3.20
2023-04-14T08:04:31.649Z,3.55
2023-04-14T08:07:00.152Z,3.00
2023-04-14T08:09:28.771Z,3.10
2023-04-14T08:14:25.711Z,3.45
2023-04-14T08:16:54.373Z,3.47
2023-04-14T08:19:22.980Z,3.22
2023-04-14T08:21:52.114Z,3.30
2023-04-14T08:24:20.562Z,2.90
2023-04-14T08:26:49.030Z,3.10
2023-04-14T08:29:17.463Z,3.00
2023-04-14T08:31:47.371Z,2.72
2023-04-14T08:34:21.022Z,2.38
2023-04-14T08:36:57.117Z,2.90
2023-04-14T08:39:25.567Z,2.60
2023-04-14T08:41:54.784Z,2.70
2023-04-14T08:44:23.991Z,3.30
2023-04-14T08:46:54.215Z,2.92
2023-04-14T08:49:27.896Z,2.92
2023-04-14T08:51:56.707Z,2.30
2023-04-14T08:54:25.554Z,2.35
2023-04-14T08:56:54.370Z,2.65
2023-04-14T08:59:22.870Z,2.45
2023-04-14T09:01:52.290Z,2.65
2023-04-14T09:04:23.484Z,2.83
2023-04-14T09:06:52.527Z,2.90
2023-04-14T09:09:21.416Z,2.75
2023-04-14T09:11:50.019Z,2.72
2023-04-14T09:14:19.928Z,2.25
2023-04-14T09:16:49.055Z,2.33
2023-04-14T09:19:18.003Z,2.50
2023-04-14T09:21:52.577Z,2.40
2023-04-14T09:24:30.313Z,2.13
2023-04-14T09:26:59.567Z,2.50
2023-04-14T09:29:28.145Z,2.30
2023-04-14T09:31:56.767Z,2.20
2023-04-14T09:34:25.441Z,2.38
2023-04-14T09:37:05.694Z,2.42
2023-04-14T09:39:34.179Z,2.50
2023-04-14T09:42:03.115Z,2.20
2023-04-14T09:44:31.859Z,2.08
2023-04-14T09:47:01.300Z,2.33
2023-04-14T09:49:30.702Z,2.45
2023-04-14T09:52:05.003Z,2.10
2023-04-14T09:54:34.886Z,2.28
2023-04-14T09:57:04.257Z,2.22
2023-04-14T09:59:34.084Z,2.03
2023-04-14T10:02:05.589Z,2.28
2023-04-14T10:04:34.244Z,1.80
2023-04-14T10:07:03.281Z,2.08
2023-04-14T10:09:32.268Z,2.05
2023-04-14T10:12:13.224Z,2.15
2023-04-14T10:14:41.879Z,2.17
2023-04-14T10:17:10.905Z,2.08
2023-04-14T10:19:39.943Z,2.25
2023-04-14T10:22:08.506Z,2.60
2023-04-14T10:24:37.845Z,1.83
2023-04-14T10:27:06.788Z,1.92
2023-04-14T10:29:36.742Z,2.03
2023-04-14T10:32:06.564Z,2.05
2023-04-14T10:34:35.645Z,2.70
2023-04-14T10:37:14.201Z,2.53
2023-04-14T10:39:43.404Z,2.65
2023-04-14T10:42:12.023Z,2.30
2023-04-14T10:44:42.037Z,2.30
2023-04-14T10:47:10.958Z,2.10
2023-04-14T10:49:40.311Z,2.30
2023-04-14T10:52:28.858Z,2.10
2023-04-14T10:55:00.968Z,1.83
2023-04-14T10:57:30.255Z,2.30
2023-04-14T11:00:01.154Z,1.65
2023-04-14T11:02:30.867Z,1.70
2023-04-14T11:05:00.178Z,1.85
2023-04-14T11:07:30.304Z,2.30
2023-04-14T11:10:05.147Z,1.67
2023-04-14T11:12:33.664Z,1.85
2023-04-14T11:15:07.297Z,1.92
2023-04-14T11:17:39.666Z,1.55
2023-04-14T11:20:15.982Z,1.70
2023-04-14T11:22:45.936Z,1.60
2023-04-14T11:25:14.984Z,1.30
2023-04-14T11:27:43.897Z,1.30
2023-04-14T11:30:17.399Z,1.63
2023-04-14T11:32:50.490Z,1.38
2023-04-14T11:35:19.225Z,1.58
2023-04-14T11:37:47.962Z,1.70
2023-04-14T11:40:17.198Z,1.52
2023-04-14T11:45:30.278Z,1.50
2023-04-14T11:47:59.898Z,1.70
2023-04-14T11:50:28.730Z,1.65
2023-04-14T11:52:59.472Z,1.40
2023-04-14T11:55:28.369Z,1.90
2023-04-14T11:57:57.038Z,1.80
2023-04-14T12:00:25.622Z,2.00
2023-04-14T12:02:55.816Z,1.50
2023-04-14T12:05:30.403Z,1.98
2023-04-14T12:08:00.859Z,1.83
2023-04-14T12:10:29.763Z,1.60
2023-04-14T12:13:02.032Z,1.65
2023-04-14T12:15:31.215Z,2.05
2023-04-14T12:18:01.540Z,1.70
2023-04-14T12:20:30.457Z,1.48
2023-04-14T12:23:03.176Z,1.92
2023-04-14T12:25:34.091Z,1.40
2023-04-14T12:28:06.289Z,1.55
2023-04-14T12:30:34.963Z,1.48
2023-04-14T12:33:11.423Z,1.77
2023-04-14T12:35:40.526Z,1.70
2023-04-14T12:38:13.777Z,1.45
2023-04-14T12:40:43.926Z,1.90
2023-04-14T12:43:12.772Z,2.38
2023-04-14T12:45:42.024Z,2.10
2023-04-14T12:48:12.485Z,1.73
2023-04-14T12:50:41.358Z,1.60
2023-04-14T12:53:26.141Z,1.70
2023-04-14T12:56:08.301Z,1.67
2023-04-14T12:58:37.862Z,1.60
2023-04-14T13:01:09.607Z,1.65
2023-04-14T13:03:44.910Z,1.65
2023-04-14T13:06:16.247Z,1.80
2023-04-14T13:08:46.243Z,1.60
2023-04-14T13:11:14.979Z,1.33
2023-04-14T13:13:44.444Z,1.50
2023-04-14T13:16:16.269Z,1.40
2023-04-14T13:18:48.016Z,1.55
2023-04-14T13:21:16.766Z,1.77
2023-04-14T13:23:45.539Z,1.38
2023-04-14T13:26:14.044Z,1.52
2023-04-14T13:28:42.568Z,1.48
2023-04-14T13:31:13.212Z,1.52
2023-04-14T13:33:41.692Z,1.40
2023-04-14T13:36:11.507Z,1.60
2023-04-14T13:38:40.059Z,1.27
2023-04-14T13:41:08.741Z,1.30
2023-04-14T13:43:37.532Z,1.55
2023-04-14T13:46:06.412Z,1.60
2023-04-14T13:48:34.883Z,1.70
2023-04-14T13:51:03.367Z,1.50
2023-04-14T13:53:33.205Z,1.40
2023-04-14T13:56:04.856Z,1.35
2023-04-14T13:58:33.386Z,1.50
2023-04-14T14:01:10.195Z,2.00
2023-04-14T14:03:40.121Z,1.70
2023-04-14T14:06:09.088Z,1.83
2023-04-14T14:08:38.905Z,1.52
2023-04-14T14:11:07.648Z,1.50
2023-04-14T14:13:36.939Z,1.50
2023-04-14T14:16:06.694Z,1.60
2023-04-14T14:18:35.365Z,1.50
2023-04-14T14:21:04.209Z,1.60
2023-04-14T14:23:32.713Z,1.60
2023-04-14T14:26:02.555Z,1.67
2023-04-14T14:28:30.999Z,1.65
2023-04-14T14:30:59.616Z,1.50
2023-04-14T14:33:28.051Z,1.58
2023-04-14T14:35:56.643Z,1.20
2023-04-14T14:38:25.586Z,1.30
2023-04-14T14:40:55.294Z,1.45
2023-04-14T14:43:25.499Z,1.40
2023-04-14T14:45:53.954Z,1.60
2023-04-14T14:48:22.614Z,1.77
2023-04-14T14:50:51.084Z,1.63
2023-04-14T14:53:19.506Z,1.40
2023-04-14T14:58:31.968Z,1.40
2023-04-14T15:07:09.482Z,1.40
2023-04-14T15:09:38.252Z,1.23
2023-04-14T15:12:06.939Z,1.42
2023-04-14T15:14:37.012Z,1.58
2023-04-14T15:17:05.437Z,1.30
2023-04-14T15:19:34.025Z,1.27
2023-04-14T15:22:02.605Z,1.40
2023-04-14T15:24:31.072Z,1.20
2023-04-14T15:26:59.521Z,1.58
2023-04-14T15:29:28.049Z,1.20
2023-04-14T15:31:57.867Z,1.25
2023-04-14T15:34:27.180Z,1.40
2023-04-14T15:36:55.691Z,1.30
2023-04-14T15:39:24.136Z,1.30
2023-04-14T15:41:52.626Z,1.23
2023-04-14T15:44:21.445Z,1.20
2023-04-14T15:46:49.860Z,1.23
2023-04-14T15:49:19.659Z,1.95
2023-04-14T15:51:49.096Z,1.27
2023-04-14T15:54:18.158Z,1.10
2023-04-14T15:56:46.794Z,1.23
2023-04-14T15:59:15.253Z,1.75
2023-04-14T16:01:46.778Z,1.33
2023-04-14T16:04:15.555Z,1.20
2023-04-14T16:06:46.231Z,1.50
2023-04-14T16:09:16.313Z,1.17
2023-04-14T16:11:45.200Z,1.30
2023-04-14T16:14:13.804Z,1.60
2023-04-14T16:16:46.911Z,1.42
2023-04-14T16:19:16.205Z,1.52
2023-04-14T16:21:46.269Z,1.67
2023-04-14T16:24:14.874Z,1.35
2023-04-14T16:26:43.479Z,2.08
2023-04-14T16:29:12.021Z,1.13
2023-04-14T16:31:40.474Z,1.30
2023-04-14T16:34:09.597Z,1.20
2023-04-14T16:36:39.156Z,1.90
2023-04-14T16:39:09.318Z,1.60
2023-04-14T16:41:37.890Z,2.53
2023-04-14T16:44:06.701Z,2.92
2023-04-14T16:46:35.486Z,2.25
2023-04-14T16:49:04.422Z,4.53
2023-04-14T16:51:32.987Z,2.13
2023-04-14T16:54:01.881Z,1.80
2023-04-14T16:56:34.106Z,1.63
2023-04-14T16:59:03.930Z,1.92
2023-04-14T17:01:32.828Z,1.40
2023-04-14T17:04:01.744Z,1.52
2023-04-14T17:06:30.877Z,1.85
2023-04-14T17:09:00.638Z,1.67
2023-04-14T17:11:29.375Z,1.67
2023-04-14T17:13:59.568Z,1.40
2023-04-14T17:16:28.855Z,1.40
2023-04-14T17:18:58.206Z,1.40
2023-04-14T17:21:26.659Z,1.48
2023-04-14T17:23:55.490Z,1.33
2023-04-14T17:26:24.869Z,1.45
2023-04-14T17:28:53.362Z,1.83
2023-04-14T17:31:23.198Z,1.40
2023-04-14T17:33:51.716Z,1.90
2023-04-14T17:36:20.221Z,2.20
2023-04-14T17:38:49.002Z,1.50
2023-04-14T17:41:18.953Z,2.67
2023-04-14T17:43:47.392Z,2.60
2023-04-14T17:46:17.518Z,2.65
2023-04-14T17:48:47.437Z,1.85
2023-04-14T17:51:15.991Z,2.35
2023-04-14T17:53:44.841Z,2.00
2023-04-14T17:56:13.477Z,2.17
2023-04-14T17:58:42.231Z,1.85
2023-04-14T18:01:11.131Z,1.92
2023-04-14T18:03:40.205Z,2.00
2023-04-14T18:06:10.983Z,2.20
2023-04-14T18:08:39.603Z,1.73
2023-04-14T18:11:09.919Z,1.80
2023-04-14T18:13:38.500Z,2.00
2023-04-14T18:16:08.568Z,2.08
2023-04-14T18:18:37.476Z,2.10
2023-04-14T18:21:06.311Z,2.08
2023-04-14T18:23:36.353Z,2.30
2023-04-14T18:28:39.081Z,2.03
2023-04-14T18:31:07.842Z,2.35
2023-04-14T18:33:36.563Z,3.00
2023-04-14T18:36:05.322Z,2.40
2023-04-14T18:38:33.939Z,2.40
2023-04-14T18:41:08.330Z,2.90
2023-04-14T18:43:37.028Z,2.50
2023-04-14T18:46:05.892Z,2.95
2023-04-14T18:48:34.481Z,4.03
2023-04-14T18:51:08.229Z,2.90
2023-04-14T18:53:36.944Z,2.60
2023-04-14T18:56:07.215Z,2.60
2023-04-14T18:58:35.832Z,3.25
2023-04-14T19:01:04.784Z,2.85
2023-04-14T19:03:33.446Z,2.70
2023-04-14T19:06:02.231Z,2.40
2023-04-14T19:08:30.741Z,2.55
2023-04-14T19:11:00.365Z,3.08
2023-04-14T19:13:30.555Z,2.58
2023-04-14T19:16:05.885Z,2.60
2023-04-14T19:18:34.405Z,2.50
2023-04-14T19:21:03.317Z,3.03
2023-04-14T19:23:31.794Z,5.68
2023-04-14T19:26:00.333Z,3.85
2023-04-14T19:28:30.392Z,4.05
2023-04-14T19:30:58.863Z,3.50
2023-04-14T19:33:27.650Z,3.85
2023-04-14T19:35:56.109Z,4.28
2023-04-14T19:38:24.748Z,8.63
2023-04-14T19:40:53.685Z,5.90
2023-04-14T19:43:22.173Z,4.47
2023-04-14T19:45:52.777Z,2.67
2023-04-14T19:48:23.784Z,2.33
2023-04-14T19:50:54.792Z,2.78
2023-04-14T19:53:24.321Z,2.88
2023-04-14T19:55:53.637Z,2.40
2023-04-14T19:58:22.753Z,2.63
2023-04-14T20:00:55.925Z,2.55
2023-04-14T20:03:25.213Z,2.78
2023-04-14T20:05:55.124Z,3.08
2023-04-14T20:08:24.040Z,2.70
2023-04-14T20:10:54.298Z,2.97
2023-04-14T20:13:24.181Z,2.70
2023-04-14T20:15:54.978Z,2.65
2023-04-14T20:18:23.655Z,3.00
2023-04-14T20:20:52.785Z,2.67
2023-04-14T20:23:21.201Z,2.95
2023-04-14T20:25:49.990Z,3.05
2023-04-14T20:28:19.600Z,2.80
2023-04-14T20:30:51.104Z,2.95
2023-04-14T20:33:21.515Z,3.17
2023-04-14T20:35:51.563Z,2.78
2023-04-14T20:38:20.414Z,2.95
2023-04-14T20:40:48.869Z,3.17
2023-04-14T20:43:17.691Z,3.00
2023-04-14T20:45:46.420Z,3.85
2023-04-14T20:48:15.140Z,3.15
2023-04-14T20:50:49.729Z,3.00
2023-04-14T20:53:18.505Z,3.35
2023-04-14T20:55:46.946Z,3.47
2023-04-14T20:58:15.472Z,3.20
2023-04-14T21:00:43.932Z,2.72
2023-04-14T21:03:12.850Z,3.22
2023-04-14T21:05:41.707Z,3.00
2023-04-14T21:08:12.656Z,3.20
2023-04-14T21:11:15.802Z,3.13
2023-04-14T21:15:26.736Z,3.33
2023-04-14T21:16:18.528Z,3.33
2023-04-14T21:18:50.597Z,3.17
2023-04-14T21:21:19.144Z,3.42
2023-04-14T21:23:49.160Z,3.40
2023-04-14T21:26:17.767Z,3.70
2023-04-14T21:28:46.303Z,3.42
2023-04-14T21:31:15.847Z,3.33
2023-04-14T21:33:44.342Z,3.65
2023-04-14T21:36:12.778Z,3.55
2023-04-14T21:38:41.225Z,3.00
2023-04-14T21:41:11.059Z,3.63
2023-04-14T21:43:39.740Z,3.80
2023-04-14T21:46:08.190Z,3.35
2023-04-14T21:48:36.718Z,3.80
2023-04-14T21:51:05.471Z,3.55
2023-04-14T21:53:34.241Z,4.35
2023-04-14T21:56:10.307Z,4.03
2023-04-14T21:58:40.853Z,3.85
2023-04-14T22:01:10.387Z,4.28
2023-04-14T22:03:41.450Z,4.00
2023-04-14T22:06:11.341Z,4.07
2023-04-14T22:08:40.321Z,3.90
2023-04-14T22:11:08.816Z,4.68
2023-04-14T22:13:37.496Z,4.28
2023-04-14T22:16:07.700Z,4.07
2023-04-14T22:18:38.839Z,4.30
2023-04-14T22:21:07.493Z,4.50
2023-04-14T22:23:36.154Z,3.90
2023-04-14T22:26:04.600Z,4.32
2023-04-14T22:28:33.004Z,4.43
2023-04-14T22:31:01.610Z,4.18
2023-04-14T22:33:31.574Z,4.82
2023-04-14T22:36:03.401Z,4.65
2023-04-14T22:38:33.817Z,5.07
2023-04-14T22:41:02.599Z,5.00
2023-04-14T22:43:36.625Z,5.30
2023-04-14T22:46:05.183Z,4.78
2023-04-14T22:48:35.016Z,4.88
2023-04-14T22:51:03.550Z,5.47
2023-04-14T22:53:32.301Z,5.15
2023-04-14T22:56:00.777Z,5.55
2023-04-14T22:58:32.080Z,5.13
2023-04-14T23:01:04.445Z,5.13
2023-04-14T23:03:39.154Z,4.93
2023-04-14T23:06:08.173Z,4.88
2023-04-14T23:08:36.672Z,5.32
2023-04-14T23:11:05.293Z,5.32
2023-04-14T23:13:33.814Z,4.97
2023-04-14T23:16:02.415Z,5.93
2023-04-14T23:18:31.278Z,6.00
2023-04-14T23:21:01.092Z,5.82
2023-04-14T23:23:29.505Z,6.18
2023-04-14T23:25:57.922Z,5.78
2023-04-14T23:28:26.690Z,6.13
2023-04-14T23:30:55.127Z,5.68
2023-04-14T23:33:23.576Z,5.55
2023-04-14T23:35:52.685Z,5.90
2023-04-14T23:38:22.563Z,6.10
2023-04-14T23:40:51.639Z,6.25
2023-04-14T23:43:20.081Z,6.35
2023-04-14T23:45:48.529Z,6.32
2023-04-14T23:48:16.994Z,6.07
2023-04-14T23:51:00.758Z,5.93
2023-04-14T23:53:35.369Z,6.35
2023-04-14T23:56:04.871Z,6.32
2023-04-14T23:58:33.709Z,6.10
